LERS Airport Information

Runway Information
Runway 07 Length 8054 ft width 148 ft
Elevation 231 ft Threshold 853 ft Heading 69
Runway 25 Length 8054 ft Width 148 ft
Elevation 234 ft Threshold 0 ft Heading 249
Runway 12 Length 3117 ft width 115 ft
Elevation 226 ft Threshold 0 ft Heading 111
Runway 30 Length 3117 ft Width 115 ft
Elevation 198 ft Threshold 0 ft Heading 291
Airport Frequencies
Type APP Name APP Frequency 118.15 MHZ
Type GND Name GND Frequency 121.7 MHZ
Type TWR Name TWR Frequency 118.15 MHZ
Airport Navaids
Type VOR-DME Name Reus Frequency 114200 KHZ
Type NDB Name Reus Frequency 424 KHZ
Airport Weather Information & NOTAM
ADDS - METARS form results

(2321 UTC 30 March 2020)
Data provider http://aviationweather.gov/metar/data/
 
METAR text: LERS 302300Z AUTO 03004KT //// // ////// 07/04 Q1014
Conditions at: LERS (REUS (CIV/MIL) , ES) observed 2300 UTC 30 March 2020
Temperature: 7.0°C (45°F)
Dewpoint: 4.0°C (39°F) [RH = 81%]
Pressure (altimeter): 29.94 inches Hg (1014.0 mb)
Winds: from the NNE (30 degrees) at 5 MPH (4 knots; 2.1 m/s)
Visibility: missing
Ceiling: unknown
Clouds: missing
Weather: no significant weather observed at this time

METAR text: LERS 302230Z AUTO 02004KT 350V050 //// // ////// 07/03 Q1015
Conditions at: LERS (REUS (CIV/MIL) , ES) observed 2230 UTC 30 March 2020
Temperature: 7.0°C (45°F)
Dewpoint: 3.0°C (37°F) [RH = 76%]
Pressure (altimeter): 29.97 inches Hg (1015.0 mb)
Winds: from the NNE (20 degrees) at 5 MPH (4 knots; 2.1 m/s)
Visibility: missing
Ceiling: unknown
Clouds: missing
Weather: no significant weather observed at this time

Forecast for: LERS (REUS (CIV/MIL) , ES)
Text: TAF LERS 302000Z 3021/3121 02006KT 9999 OVC035 TX15/3113Z TN07/3106Z
Forecast period: 2100 UTC 30 March 2020 to 0400 UTC 31 March 2020
Forecast type: FROM: standard forecast or significant change
Winds: from the NNE (20 degrees) at 7 MPH (6 knots; 3.1 m/s)
Visibility: 6 or more miles 10+ km)
Ceiling: 3500 feet AGL
Clouds: overcast cloud deck at 3500 feet AGL
Weather: no significant weather forecast for this period
Text: PROB40
Forecast period: 2100 UTC 30 March 2020 to 2100 UTC 31 March 2020
Forecast type: TEMPORARY: The following changes expected for less than half the time period
Visibility: 2.49 miles (4.01 km)
Ceiling: 2000 feet AGL
Clouds: broken clouds at 2000 feet AGL
overcast cloud deck at 3000 feet AGL
Weather: RA  (moderate rain)
Text: TEMPO 3021/3121 4000 RA BKN020 OVC030
Forecast period: 0400 to 2100 UTC 31 March 2020
Forecast type: BECOMING: Conditions expected to become as follows by 0700 UTC 31 March 2020
Winds: from the NE (40 degrees) at 14 MPH (12 knots; 6.2 m/s)
Visibility: 6 or more miles 10+ km)
Ceiling: 3500 feet AGL
Clouds: overcast cloud deck at 3500 feet AGL
Weather: no significant weather forecast for this period